createdAt,value
2018-12-01T04:47:58.830Z,23.40
2018-12-01T05:06:36.146Z,24.70
2018-12-01T05:11:16.848Z,24.40
2018-12-01T05:16:26.666Z,23.50
2018-12-01T05:17:32.392Z,23.30
2018-12-01T05:18:26.487Z,24.10
2018-12-01T05:19:27.370Z,23.70
2018-12-01T05:23:04.819Z,24.30
2018-12-01T05:24:02.575Z,22.50
2018-12-01T05:25:00.742Z,22.90
2018-12-01T05:25:58.739Z,23.70
2018-12-01T05:27:00.738Z,21.80
2018-12-01T05:28:00.420Z,21.10
2018-12-01T05:28:58.765Z,20.70
2018-12-01T05:29:57.643Z,20.70
2018-12-01T05:30:58.051Z,23.10
2018-12-01T05:31:57.974Z,23.90
2018-12-01T05:32:57.681Z,20.80
2018-12-01T05:33:57.963Z,21.30
2018-12-01T05:34:57.877Z,20.20
2018-12-01T05:35:58.390Z,21.40
2018-12-01T05:37:14.227Z,22.90
2018-12-01T05:38:09.776Z,22.10
2018-12-01T05:39:00.915Z,20.80
2018-12-01T05:40:00.882Z,24.30
2018-12-01T05:43:11.885Z,20.90
2018-12-01T05:44:14.538Z,19.30
2018-12-01T05:45:17.443Z,21.50
2018-12-01T05:47:09.139Z,20.20
2018-12-01T05:48:08.531Z,18.60
2018-12-01T05:50:47.156Z,20.20
2018-12-01T05:51:49.084Z,21.70
2018-12-01T05:52:49.373Z,18.80
2018-12-01T05:53:50.914Z,21.00
2018-12-01T05:55:50.252Z,21.10
2018-12-01T05:56:47.179Z,20.10
2018-12-01T05:57:49.923Z,21.50
2018-12-01T05:58:49.419Z,18.60
2018-12-01T05:59:48.490Z,20.40
2018-12-01T06:00:49.717Z,18.80
2018-12-01T06:01:49.400Z,22.30
2018-12-01T06:02:46.781Z,22.40
2018-12-01T06:03:46.388Z,21.90
2018-12-01T06:04:46.585Z,22.30
2018-12-01T06:05:46.972Z,21.00
2018-12-01T06:06:47.212Z,20.50
2018-12-01T06:07:48.419Z,20.70
2018-12-01T06:08:47.468Z,23.60
2018-12-01T06:09:49.459Z,20.00
2018-12-01T06:10:47.950Z,20.70
2018-12-01T06:11:58.808Z,20.80
2018-12-01T06:12:50.603Z,21.90
2018-12-01T06:13:53.138Z,20.80
2018-12-01T06:15:15.209Z,22.20
2018-12-01T06:15:50.912Z,23.10
2018-12-01T06:16:50.592Z,21.20
2018-12-01T06:17:51.281Z,21.90
2018-12-01T06:18:51.113Z,22.80
2018-12-01T06:19:50.779Z,21.70
2018-12-01T06:20:49.347Z,19.20
2018-12-01T06:21:49.287Z,20.50
2018-12-01T06:22:49.303Z,21.60
2018-12-01T06:23:49.484Z,20.50
2018-12-01T06:24:49.743Z,22.60
2018-12-01T06:25:49.912Z,21.30
2018-12-01T06:26:50.327Z,23.10
2018-12-01T06:27:50.300Z,22.00
2018-12-01T06:28:50.408Z,19.90
2018-12-01T06:29:50.664Z,21.30
2018-12-01T06:30:51.098Z,20.80
2018-12-01T06:31:51.098Z,19.30
2018-12-01T06:32:51.119Z,20.20
2018-12-01T06:33:51.478Z,20.80
2018-12-01T06:34:51.540Z,20.00
2018-12-01T06:35:51.765Z,20.60
2018-12-01T06:36:51.746Z,20.50
2018-12-01T06:37:52.016Z,24.60
2018-12-01T06:38:52.295Z,22.50
2018-12-01T06:39:52.428Z,21.40
2018-12-01T06:40:52.588Z,20.60
2018-12-01T06:41:52.853Z,21.80
2018-12-01T06:42:53.039Z,18.30
2018-12-01T06:43:53.087Z,20.10
2018-12-01T06:44:53.284Z,20.50
2018-12-01T06:45:53.610Z,18.60
2018-12-01T06:46:53.938Z,20.40
2018-12-01T06:47:53.891Z,21.00
2018-12-01T06:48:53.995Z,22.00
2018-12-01T06:49:54.040Z,20.30
2018-12-01T06:50:54.124Z,20.40
2018-12-01T06:51:54.252Z,20.50
2018-12-01T06:52:54.700Z,19.00
2018-12-01T06:53:55.382Z,19.10
2018-12-01T06:54:54.694Z,19.30
2018-12-01T06:55:54.978Z,22.00
2018-12-01T06:58:57.447Z,19.50
2018-12-01T06:59:52.680Z,20.70
2018-12-01T07:04:47.557Z,19.30
2018-12-01T07:05:31.434Z,17.50
2018-12-01T07:06:31.338Z,18.20
2018-12-01T07:07:31.905Z,17.40
2018-12-01T07:08:32.192Z,19.10
2018-12-01T07:09:32.312Z,20.30
2018-12-01T07:10:32.949Z,18.70
2018-12-01T07:11:32.013Z,18.70
2018-12-01T07:12:34.138Z,18.00
2018-12-01T07:13:34.134Z,17.40
2018-12-01T07:14:37.296Z,20.30
2018-12-01T07:15:35.177Z,21.30
2018-12-01T07:16:38.947Z,19.90
2018-12-01T07:17:36.630Z,18.00
2018-12-01T07:18:34.513Z,18.40
2018-12-01T07:34:47.483Z,20.60
2018-12-01T08:31:32.665Z,17.40
2018-12-01T08:33:26.443Z,16.70
2018-12-01T08:37:54.873Z,17.60
2018-12-01T08:38:47.154Z,16.40
2018-12-01T08:39:54.894Z,16.30
2018-12-01T08:40:46.938Z,17.20
2018-12-01T08:41:47.123Z,18.50
2018-12-01T08:43:03.524Z,15.10
2018-12-01T08:43:47.457Z,18.80
2018-12-01T08:44:47.650Z,16.80
2018-12-01T08:45:47.704Z,15.90
2018-12-01T08:46:47.942Z,16.00
2018-12-01T08:47:48.833Z,14.70
2018-12-01T08:48:56.442Z,16.30
2018-12-01T08:49:58.670Z,14.90
2018-12-01T08:54:33.998Z,18.10
2018-12-01T08:55:31.859Z,16.40
2018-12-01T08:58:42.011Z,17.60
2018-12-01T08:59:33.508Z,17.60
2018-12-01T09:00:33.342Z,17.00
2018-12-01T09:01:31.234Z,16.90
2018-12-01T09:02:31.482Z,17.30
2018-12-01T09:03:32.540Z,17.90
2018-12-01T09:04:31.816Z,17.10
2018-12-01T09:05:32.203Z,15.80
2018-12-01T09:06:32.252Z,18.90
2018-12-01T09:07:32.764Z,16.30
2018-12-01T09:08:32.321Z,17.50
2018-12-01T09:11:22.946Z,18.40
2018-12-01T09:32:52.061Z,19.70
2018-12-01T09:34:44.624Z,21.10
2018-12-01T09:36:54.993Z,17.80
2018-12-01T09:39:45.565Z,18.70
2018-12-01T09:41:08.434Z,19.10
2018-12-01T09:41:45.479Z,19.80
2018-12-01T09:42:50.990Z,19.60
2018-12-01T09:43:46.264Z,20.90
2018-12-01T09:48:15.774Z,18.90
2018-12-01T09:49:06.760Z,18.50
2018-12-01T09:50:20.311Z,19.50
2018-12-01T09:52:08.832Z,18.10
2018-12-01T09:53:07.981Z,18.20
2018-12-01T09:54:07.584Z,17.30
2018-12-01T09:55:07.935Z,17.80
2018-12-01T09:56:19.790Z,18.90
2018-12-01T09:57:08.240Z,20.60
2018-12-01T10:00:29.026Z,19.70
2018-12-01T10:04:41.708Z,18.70
2018-12-01T10:10:07.826Z,18.90
2018-12-01T10:13:40.319Z,18.80
2018-12-01T10:40:25.293Z,18.50
2018-12-01T10:41:27.246Z,21.70
2018-12-01T10:42:25.784Z,19.70
2018-12-01T10:47:18.119Z,19.20
2018-12-01T11:20:09.274Z,16.20
2018-12-01T11:21:09.805Z,14.80
2018-12-01T11:22:18.864Z,16.30
2018-12-01T11:25:04.257Z,14.40
2018-12-01T11:26:07.849Z,15.50
2018-12-01T11:27:06.440Z,15.90
2018-12-01T11:39:54.848Z,15.40
2018-12-01T11:41:11.584Z,13.40
2018-12-01T11:41:50.592Z,13.60
2018-12-01T11:45:21.667Z,15.40
2018-12-01T11:46:07.795Z,16.40
2018-12-01T11:47:09.519Z,17.20
2018-12-01T11:48:08.770Z,15.00
2018-12-01T11:49:23.595Z,16.20
2018-12-01T11:59:17.579Z,16.70
2018-12-01T12:02:00.378Z,15.70
2018-12-01T12:02:39.395Z,15.00
2018-12-01T12:07:22.029Z,13.50
2018-12-01T12:28:36.359Z,12.40
2018-12-01T12:29:00.888Z,14.60
2018-12-01T12:48:53.230Z,15.60
2018-12-01T12:49:56.329Z,14.10
2018-12-01T12:50:53.727Z,14.00
2018-12-01T12:51:56.204Z,14.50
2018-12-01T12:52:58.380Z,11.60
2018-12-01T12:56:37.642Z,16.00
2018-12-01T12:57:38.683Z,14.60
2018-12-01T13:02:03.660Z,14.20
2018-12-01T13:03:04.104Z,14.60
2018-12-01T13:13:23.916Z,11.00
2018-12-01T13:14:25.220Z,14.70
2018-12-01T13:15:24.598Z,19.60
2018-12-01T13:19:05.985Z,10.40
2018-12-01T13:20:06.822Z,11.70
2018-12-01T13:21:06.288Z,13.40
2018-12-01T13:22:06.743Z,11.40
2018-12-01T13:23:06.606Z,22.30
2018-12-01T13:24:07.182Z,19.90
2018-12-01T13:37:03.781Z,14.00
2018-12-01T13:41:57.834Z,13.10
2018-12-01T14:15:07.434Z,11.40
2018-12-01T14:23:16.825Z,11.40
2018-12-01T14:24:17.205Z,12.00
2018-12-01T14:30:55.429Z,11.60
2018-12-01T14:31:33.538Z,13.10
2018-12-01T14:32:35.513Z,11.10
2018-12-01T14:33:37.178Z,15.20
2018-12-01T14:34:46.416Z,15.30
2018-12-01T14:35:36.948Z,12.70
2018-12-01T14:36:34.244Z,10.50
2018-12-01T14:37:36.553Z,10.10
2018-12-01T14:38:36.087Z,11.50
2018-12-01T14:39:34.287Z,8.70
2018-12-01T14:40:32.719Z,10.30
2018-12-01T14:41:33.539Z,11.60
2018-12-01T14:42:32.957Z,10.70
2018-12-01T14:43:33.308Z,9.00
2018-12-01T14:44:33.197Z,13.40
2018-12-01T14:45:32.980Z,11.10
2018-12-01T14:46:33.154Z,10.80
2018-12-01T14:47:33.439Z,10.80
2018-12-01T14:48:33.375Z,7.80
2018-12-01T14:50:06.115Z,9.40
2018-12-01T14:52:26.568Z,9.60
2018-12-01T14:55:20.552Z,12.90
2018-12-01T14:56:13.665Z,12.70
2018-12-01T15:00:16.782Z,10.90
2018-12-01T15:01:19.136Z,10.70
2018-12-01T15:02:16.398Z,10.60
2018-12-01T15:03:25.906Z,10.70
2018-12-01T15:04:16.762Z,10.70
2018-12-01T15:05:16.612Z,149.70
2018-12-01T15:06:16.976Z,98.10
2018-12-01T15:07:17.563Z,57.00
2018-12-01T15:08:14.240Z,28.80
2018-12-01T15:09:15.338Z,19.70
2018-12-01T15:10:15.318Z,15.80
2018-12-01T15:11:14.840Z,16.90
2018-12-01T15:16:07.651Z,13.20
2018-12-01T15:20:37.040Z,27.20
2018-12-01T15:24:41.698Z,23.70
2018-12-01T15:25:02.581Z,10.80
2018-12-01T15:26:00.427Z,14.20
2018-12-01T15:27:05.352Z,11.70
2018-12-01T15:28:08.858Z,9.40
2018-12-01T15:29:02.801Z,11.00
2018-12-01T15:29:59.931Z,16.40
2018-12-01T15:31:00.543Z,12.30
2018-12-01T15:32:01.733Z,20.70
2018-12-01T15:32:59.307Z,34.80
2018-12-01T15:33:58.942Z,19.30
2018-12-01T15:34:58.198Z,13.30
2018-12-01T15:35:58.079Z,20.80
2018-12-01T15:36:58.319Z,22.10
2018-12-01T15:37:58.346Z,23.40
2018-12-01T15:38:58.900Z,13.30
2018-12-01T15:39:58.823Z,12.20
2018-12-01T15:40:58.961Z,12.60
2018-12-01T15:41:59.146Z,11.60
2018-12-01T15:42:59.222Z,13.70
2018-12-01T15:43:59.311Z,15.00
2018-12-01T15:44:59.554Z,15.20
2018-12-01T15:45:59.941Z,13.30
2018-12-01T15:47:00.157Z,18.20
2018-12-01T15:48:01.474Z,17.60
2018-12-01T15:49:00.286Z,18.70
2018-12-01T15:50:10.529Z,13.50
2018-12-01T15:51:04.299Z,12.40
2018-12-01T15:52:03.017Z,12.30
2018-12-01T15:53:08.240Z,13.90
2018-12-01T15:54:05.386Z,20.30
2018-12-01T15:55:03.897Z,14.80
2018-12-01T15:56:03.497Z,17.10
2018-12-01T15:57:02.484Z,17.00
2018-12-01T15:58:02.180Z,17.50
2018-12-01T15:59:02.417Z,19.10
2018-12-01T16:00:02.384Z,15.10
2018-12-01T16:01:14.056Z,16.90
2018-12-01T16:02:04.809Z,23.30
2018-12-01T16:03:07.011Z,26.70
2018-12-01T16:04:05.664Z,31.60
2018-12-01T16:05:05.958Z,19.70
2018-12-01T16:06:08.766Z,16.10
2018-12-01T16:07:05.959Z,12.90
2018-12-01T16:08:06.551Z,9.90
2018-12-01T16:09:05.214Z,11.20
2018-12-01T16:10:04.519Z,12.60
2018-12-01T16:11:04.455Z,12.60
2018-12-01T16:12:04.133Z,12.00
2018-12-01T16:13:04.337Z,13.10
2018-12-01T16:14:04.744Z,12.30
2018-12-01T16:15:04.737Z,16.50
2018-12-01T16:16:05.163Z,12.40
2018-12-01T16:17:05.332Z,12.00
2018-12-01T16:18:06.034Z,14.50
2018-12-01T16:19:05.763Z,13.80
2018-12-01T16:20:05.733Z,13.00
2018-12-01T16:21:07.355Z,12.60
2018-12-01T16:22:07.071Z,15.90
2018-12-01T16:23:06.364Z,13.60
2018-12-01T16:24:06.389Z,13.90
2018-12-01T16:25:06.621Z,14.20
2018-12-01T16:26:06.727Z,10.40
2018-12-01T16:27:07.000Z,14.20
2018-12-01T16:28:07.144Z,15.90
2018-12-01T16:29:07.133Z,13.40
2018-12-01T16:30:07.395Z,13.10
2018-12-01T16:31:07.678Z,12.80
2018-12-01T16:32:08.684Z,11.90
2018-12-01T16:33:08.038Z,13.50
2018-12-01T16:34:08.239Z,12.60
2018-12-01T16:35:08.039Z,11.10
2018-12-01T16:36:08.572Z,14.50
2018-12-01T16:37:09.540Z,13.50
2018-12-01T16:38:08.796Z,13.60
2018-12-01T16:39:09.049Z,14.00
2018-12-01T16:40:09.279Z,13.90
2018-12-01T16:41:09.449Z,13.90
2018-12-01T16:42:09.395Z,14.00
2018-12-01T16:43:09.960Z,13.10
2018-12-01T16:44:10.188Z,13.10
2018-12-01T16:45:10.832Z,13.10
2018-12-01T16:46:10.206Z,12.80
2018-12-01T16:47:10.331Z,15.90
2018-12-01T16:48:10.534Z,14.80
2018-12-01T16:49:10.950Z,13.30
2018-12-01T16:50:11.257Z,12.80
2018-12-01T16:51:11.338Z,11.70
2018-12-01T16:52:11.598Z,11.90
2018-12-01T16:53:11.233Z,18.60
2018-12-01T16:54:12.542Z,18.60
2018-12-01T16:55:11.989Z,30.10
2018-12-01T16:56:12.399Z,21.80
2018-12-01T16:57:12.320Z,19.90
2018-12-01T16:58:12.861Z,12.70
2018-12-01T16:59:27.481Z,16.80
2018-12-01T17:00:30.718Z,15.30
2018-12-01T17:12:01.311Z,14.10
2018-12-01T17:25:09.397Z,10.70
2018-12-01T17:28:40.431Z,13.90
2018-12-01T17:29:46.784Z,11.70
2018-12-01T17:31:28.145Z,12.80
2018-12-01T17:31:36.948Z,10.50
2018-12-01T17:32:34.960Z,12.50
2018-12-01T17:33:38.807Z,12.30
2018-12-01T17:36:50.811Z,10.90
2018-12-01T17:45:31.392Z,11.50
2018-12-01T17:46:32.896Z,15.60
2018-12-01T17:47:31.311Z,10.60
2018-12-01T17:48:42.666Z,13.50
2018-12-01T17:49:34.733Z,12.70
2018-12-01T19:13:26.968Z,8.90
2018-12-01T19:14:30.897Z,11.20
2018-12-01T19:15:39.872Z,9.50
2018-12-01T19:17:47.921Z,11.00
2018-12-01T19:18:30.354Z,11.70
2018-12-01T19:19:37.379Z,11.00
2018-12-01T19:20:25.521Z,7.60
2018-12-01T19:22:29.200Z,8.20
2018-12-01T19:24:58.154Z,8.60
2018-12-01T19:26:00.042Z,7.50
2018-12-01T20:22:34.390Z,7.50
2018-12-01T20:23:33.479Z,5.90
2018-12-01T20:25:33.364Z,6.00
2018-12-01T20:26:34.288Z,7.80
2018-12-01T20:27:33.938Z,6.00
2018-12-01T20:28:34.552Z,6.20
2018-12-01T20:29:35.889Z,7.20
2018-12-01T20:30:43.283Z,6.30
2018-12-01T20:38:13.114Z,7.50
2018-12-01T20:40:14.549Z,8.10
2018-12-01T20:41:14.534Z,6.80
2018-12-01T20:42:12.450Z,6.30
2018-12-01T20:43:12.466Z,7.90
2018-12-01T20:44:12.632Z,7.10
2018-12-01T20:45:12.760Z,7.10
2018-12-01T20:46:12.967Z,7.20
2018-12-01T20:47:13.161Z,7.80
2018-12-01T20:48:13.307Z,7.30
2018-12-01T20:49:13.414Z,8.80
2018-12-01T20:50:13.581Z,7.80
2018-12-01T20:51:13.815Z,6.90
2018-12-01T20:52:13.947Z,8.00
2018-12-01T20:53:14.035Z,7.30
2018-12-01T20:54:14.302Z,6.60
2018-12-01T20:55:14.373Z,6.40
2018-12-01T20:56:14.586Z,9.20
2018-12-01T20:57:14.743Z,7.00
2018-12-01T20:58:14.830Z,7.20
2018-12-01T20:59:15.136Z,8.40
2018-12-01T21:00:15.238Z,9.10
2018-12-01T21:01:15.409Z,7.50
2018-12-01T21:02:15.544Z,9.60
2018-12-01T21:03:15.773Z,7.30
2018-12-01T21:04:17.634Z,7.70
2018-12-01T21:05:17.004Z,9.10
2018-12-01T21:06:18.152Z,8.90
2018-12-01T21:11:47.137Z,7.00
2018-12-01T21:12:54.771Z,6.50
